Home   Weather   United Kingdom   London   Past weeks
Flag for United Kingdom

Past Weather in London, England, United Kingdom — Yesterday and Last 2 Weeks

Currently: 66 °F. Clear. (Weather station: Northolt, United Kingdom). See more current weather

Past Weather in London — Graph

°F

London Temperature Yesterday

Maximum temperature yesterday: 79 °F (at 3:20 pm)
Minimum temperature yesterday: 50 °F (at 3:50 am)
Average temperature yesterday: 68 °F

High & Low Weather Summary for the Past Weeks

 TemperatureHumidityPressure
High79 °F (May 17, 3:20 pm)100% (May 6, 4:50 am)30.42 "Hg (May 6, 4:50 am)
Low39 °F (May 9, 4:50 am)31% (May 18, 4:20 pm)29.74 "Hg (May 11, 1:50 pm)
Average60 °F69%30.09 "Hg
* Reported May 3 7:20 pm — May 18 7:50 pm, London. Weather by CustomWeather, © 2022

Note: Actual official high and low records may vary slightly from our data, if they occured in-between our weather recording intervals... More about our weather records

London Weather History for the Previous 24 Hours

Scroll right to see more
 ConditionsComfort  
Time TempWeatherWind HumidityBarometerVisibility
7:50 pm
Wed, May 18
68 °FSunny.12 mph40%30.01 "Hg10 mi
7:20 pm68 °FSunny.7 mph38%30.01 "Hg10 mi
6:50 pm70 °FSunny.8 mph35%30.01 "Hg10 mi
6:20 pm70 °FSunny.9 mph35%30.01 "Hg10 mi
5:50 pm70 °FSunny.7 mph35%30.04 "Hg10 mi
5:20 pm70 °FSunny.9 mph33%30.04 "Hg10 mi
4:50 pm72 °FSunny.9 mph33%30.07 "Hg10 mi
4:20 pm72 °FSunny.12 mph31%30.07 "Hg10 mi
3:50 pm72 °FSunny.12 mph38%30.07 "Hg10 mi
3:20 pm73 °FSunny.12 mph41%30.07 "Hg10 mi
2:50 pm73 °FSunny.12 mph38%30.09 "Hg10 mi
2:20 pm72 °FSunny.9 mph41%30.09 "Hg10 mi
1:50 pm72 °FSunny.14 mph44%30.09 "Hg10 mi
1:20 pm72 °FSunny.10 mph44%30.12 "Hg10 mi
12:50 pm72 °FSunny.13 mph41%30.12 "Hg10 mi
12:20 pm70 °FSunny.8 mph43%30.12 "Hg10 mi
11:50 am68 °FPartly sunny.9 mph53%30.12 "HgN/A
11:20 am68 °FPartly sunny.7 mph56%30.15 "HgN/A
10:50 am64 °FPartly sunny.8 mph60%30.15 "HgN/A
10:20 am63 °FPartly sunny.7 mph68%30.15 "HgN/A
9:50 am61 °FPartly sunny.6 mph77%30.15 "HgN/A
8:50 am59 °FPartly sunny.5 mph77%30.15 "HgN/A
8:20 am57 °FPartly sunny.6 mph82%30.15 "HgN/A
7:50 am55 °FPartly sunny.7 mph82%30.15 "HgN/A
6:50 am54 °FPassing clouds.5 mph94%30.12 "HgN/A
5:50 am52 °FCool.3 mph94%30.09 "HgN/A
4:50 am52 °FCool.3 mph94%30.09 "HgN/A
3:50 am54 °FCool.7 mph88%30.09 "HgN/A
2:50 am55 °FCool.7 mph88%30.07 "HgN/A
1:50 am57 °FCool.8 mph88%30.07 "HgN/A
12:50 am59 °FCool.6 mph88%30.04 "HgN/A
11:50 pm
Tue, May 17
61 °FPassing clouds.9 mph83%30.01 "HgN/A
10:50 pm63 °FPassing clouds.9 mph83%30.01 "HgN/A
9:50 pm64 °FPassing clouds.7 mph83%29.98 "HgN/A
9:20 pm64 °FSprinkles. Partly cloudy.14 mph78%29.98 "HgN/A
Weather by CustomWeather, © 2022

See weather overview